sensor_id;sensor_type;location;lat;lon;timestamp;P1;durP1;ratioP1;P2;durP2;ratioP2
84745;SDS011;74975;51.922;6.480;2024-02-21T00:01:07;19.45;;;10.18;;
84745;SDS011;74975;51.922;6.480;2024-02-21T00:03:38;15.10;;;7.75;;
84745;SDS011;74975;51.922;6.480;2024-02-21T00:06:31;19.35;;;8.07;;
84745;SDS011;74975;51.922;6.480;2024-02-21T00:09:17;19.23;;;10.18;;
84745;SDS011;74975;51.922;6.480;2024-02-21T00:11:50;17.98;;;9.20;;
84745;SDS011;74975;51.922;6.480;2024-02-21T00:14:25;21.58;;;9.68;;
84745;SDS011;74975;51.922;6.480;2024-02-21T00:16:58;16.30;;;8.02;;
84745;SDS011;74975;51.922;6.480;2024-02-21T00:19:30;21.17;;;9.55;;
84745;SDS011;74975;51.922;6.480;2024-02-21T00:22:07;24.83;;;9.35;;
84745;SDS011;74975;51.922;6.480;2024-02-21T00:24:39;18.63;;;9.68;;
84745;SDS011;74975;51.922;6.480;2024-02-21T00:27:13;16.70;;;8.77;;
84745;SDS011;74975;51.922;6.480;2024-02-21T00:29:48;27.30;;;11.88;;
84745;SDS011;74975;51.922;6.480;2024-02-21T00:32:20;20.70;;;9.73;;
84745;SDS011;74975;51.922;6.480;2024-02-21T00:34:51;23.55;;;8.73;;
84745;SDS011;74975;51.922;6.480;2024-02-21T00:37:26;18.80;;;8.00;;
84745;SDS011;74975;51.922;6.480;2024-02-21T00:40:02;20.25;;;9.57;;
84745;SDS011;74975;51.922;6.480;2024-02-21T00:42:33;20.67;;;10.85;;
84745;SDS011;74975;51.922;6.480;2024-02-21T00:45:05;15.65;;;8.82;;
84745;SDS011;74975;51.922;6.480;2024-02-21T00:47:45;17.52;;;8.82;;
84745;SDS011;74975;51.922;6.480;2024-02-21T00:50:19;21.40;;;10.48;;
84745;SDS011;74975;51.922;6.480;2024-02-21T00:52:52;20.88;;;10.73;;
84745;SDS011;74975;51.922;6.480;2024-02-21T00:55:27;16.13;;;7.93;;
84745;SDS011;74975;51.922;6.480;2024-02-21T00:58:05;19.23;;;7.97;;
84745;SDS011;74975;51.922;6.480;2024-02-21T01:00:40;17.65;;;8.68;;
84745;SDS011;74975;51.922;6.480;2024-02-21T01:03:14;20.75;;;9.13;;
84745;SDS011;74975;51.922;6.480;2024-02-21T01:05:46;17.50;;;9.68;;
84745;SDS011;74975;51.922;6.480;2024-02-21T01:08:21;20.13;;;9.60;;
84745;SDS011;74975;51.922;6.480;2024-02-21T01:10:56;17.58;;;8.88;;
84745;SDS011;74975;51.922;6.480;2024-02-21T01:13:38;21.52;;;9.02;;
84745;SDS011;74975;51.922;6.480;2024-02-21T01:16:09;17.67;;;8.55;;
84745;SDS011;74975;51.922;6.480;2024-02-21T01:18:41;14.68;;;7.80;;
84745;SDS011;74975;51.922;6.480;2024-02-21T01:21:12;14.68;;;8.27;;
84745;SDS011;74975;51.922;6.480;2024-02-21T01:23:48;18.50;;;8.07;;
84745;SDS011;74975;51.922;6.480;2024-02-21T01:26:17;25.15;;;10.13;;
84745;SDS011;74975;51.922;6.480;2024-02-21T01:28:50;17.67;;;9.52;;
84745;SDS011;74975;51.922;6.480;2024-02-21T01:31:22;18.73;;;9.43;;
84745;SDS011;74975;51.922;6.480;2024-02-21T01:33:53;17.58;;;9.50;;
84745;SDS011;74975;51.922;6.480;2024-02-21T01:36:31;18.48;;;9.10;;
84745;SDS011;74975;51.922;6.480;2024-02-21T01:39:12;12.77;;;6.90;;
84745;SDS011;74975;51.922;6.480;2024-02-21T01:41:43;20.75;;;8.80;;
84745;SDS011;74975;51.922;6.480;2024-02-21T01:44:19;16.20;;;7.30;;
84745;SDS011;74975;51.922;6.480;2024-02-21T01:46:53;21.90;;;8.55;;
84745;SDS011;74975;51.922;6.480;2024-02-21T01:49:28;15.63;;;8.25;;
84745;SDS011;74975;51.922;6.480;2024-02-21T01:51:59;14.75;;;7.80;;
84745;SDS011;74975;51.922;6.480;2024-02-21T01:54:32;14.07;;;8.15;;
84745;SDS011;74975;51.922;6.480;2024-02-21T01:57:07;17.88;;;8.88;;
84745;SDS011;74975;51.922;6.480;2024-02-21T01:59:39;21.77;;;8.25;;
84745;SDS011;74975;51.922;6.480;2024-02-21T02:02:12;18.45;;;8.57;;
84745;SDS011;74975;51.922;6.480;2024-02-21T02:04:49;15.02;;;7.55;;
84745;SDS011;74975;51.922;6.480;2024-02-21T02:07:23;15.65;;;8.02;;
84745;SDS011;74975;51.922;6.480;2024-02-21T02:09:54;24.20;;;10.10;;
84745;SDS011;74975;51.922;6.480;2024-02-21T02:12:30;13.65;;;7.93;;
84745;SDS011;74975;51.922;6.480;2024-02-21T02:15:04;23.90;;;8.38;;
84745;SDS011;74975;51.922;6.480;2024-02-21T02:17:40;11.65;;;5.82;;
84745;SDS011;74975;51.922;6.480;2024-02-21T02:20:11;18.27;;;6.93;;
84745;SDS011;74975;51.922;6.480;2024-02-21T02:22:43;11.73;;;6.40;;
84745;SDS011;74975;51.922;6.480;2024-02-21T02:25:16;22.17;;;7.65;;
84745;SDS011;74975;51.922;6.480;2024-02-21T02:27:48;11.85;;;6.93;;
84745;SDS011;74975;51.922;6.480;2024-02-21T02:30:28;16.92;;;6.18;;
84745;SDS011;74975;51.922;6.480;2024-02-21T02:33:00;20.33;;;8.18;;
84745;SDS011;74975;51.922;6.480;2024-02-21T02:35:36;16.40;;;8.23;;
84745;SDS011;74975;51.922;6.480;2024-02-21T02:38:07;18.50;;;7.90;;
84745;SDS011;74975;51.922;6.480;2024-02-21T02:40:42;16.38;;;8.20;;
84745;SDS011;74975;51.922;6.480;2024-02-21T02:43:21;19.35;;;7.82;;
84745;SDS011;74975;51.922;6.480;2024-02-21T02:45:56;23.77;;;8.05;;
84745;SDS011;74975;51.922;6.480;2024-02-21T02:48:27;20.02;;;9.30;;
84745;SDS011;74975;51.922;6.480;2024-02-21T02:50:58;19.85;;;8.60;;
84745;SDS011;74975;51.922;6.480;2024-02-21T02:53:31;23.90;;;9.05;;
84745;SDS011;74975;51.922;6.480;2024-02-21T02:56:03;14.45;;;6.40;;
84745;SDS011;74975;51.922;6.480;2024-02-21T02:58:34;12.82;;;7.90;;
84745;SDS011;74975;51.922;6.480;2024-02-21T03:01:06;20.10;;;7.90;;
84745;SDS011;74975;51.922;6.480;2024-02-21T03:03:38;17.38;;;7.88;;
84745;SDS011;74975;51.922;6.480;2024-02-21T03:06:09;15.77;;;7.93;;
84745;SDS011;74975;51.922;6.480;2024-02-21T03:08:44;8.48;;;5.78;;
84745;SDS011;74975;51.922;6.480;2024-02-21T03:11:25;23.42;;;8.52;;
84745;SDS011;74975;51.922;6.480;2024-02-21T03:13:59;19.98;;;9.10;;
84745;SDS011;74975;51.922;6.480;2024-02-21T03:16:31;20.73;;;9.10;;
84745;SDS011;74975;51.922;6.480;2024-02-21T03:19:02;35.78;;;10.20;;
84745;SDS011;74975;51.922;6.480;2024-02-21T03:21:35;16.50;;;8.77;;
84745;SDS011;74975;51.922;6.480;2024-02-21T03:24:06;20.73;;;9.15;;
84745;SDS011;74975;51.922;6.480;2024-02-21T03:26:38;18.40;;;8.35;;
84745;SDS011;74975;51.922;6.480;2024-02-21T03:29:14;15.15;;;7.70;;
84745;SDS011;74975;51.922;6.480;2024-02-21T03:31:51;14.82;;;6.65;;
84745;SDS011;74975;51.922;6.480;2024-02-21T03:34:22;15.07;;;6.90;;
84745;SDS011;74975;51.922;6.480;2024-02-21T03:36:53;11.68;;;6.32;;
84745;SDS011;74975;51.922;6.480;2024-02-21T03:39:30;20.40;;;8.80;;
84745;SDS011;74975;51.922;6.480;2024-02-21T03:42:03;16.10;;;7.18;;
84745;SDS011;74975;51.922;6.480;2024-02-21T03:44:42;13.77;;;7.30;;
84745;SDS011;74975;51.922;6.480;2024-02-21T03:47:13;19.23;;;7.47;;
84745;SDS011;74975;51.922;6.480;2024-02-21T03:49:52;16.60;;;6.30;;
84745;SDS011;74975;51.922;6.480;2024-02-21T03:52:27;20.10;;;7.55;;
84745;SDS011;74975;51.922;6.480;2024-02-21T03:55:00;9.80;;;4.90;;
84745;SDS011;74975;51.922;6.480;2024-02-21T03:57:31;15.43;;;7.20;;
84745;SDS011;74975;51.922;6.480;2024-02-21T04:00:00;12.45;;;5.70;;
84745;SDS011;74975;51.922;6.480;2024-02-21T04:02:34;16.50;;;6.28;;
84745;SDS011;74975;51.922;6.480;2024-02-21T04:05:06;11.30;;;5.38;;
84745;SDS011;74975;51.922;6.480;2024-02-21T04:07:41;12.00;;;6.60;;
84745;SDS011;74975;51.922;6.480;2024-02-21T04:10:16;14.02;;;6.82;;
84745;SDS011;74975;51.922;6.480;2024-02-21T04:12:51;15.00;;;8.32;;
84745;SDS011;74975;51.922;6.480;2024-02-21T04:15:26;12.20;;;6.30;;
84745;SDS011;74975;51.922;6.480;2024-02-21T04:17:57;11.88;;;5.18;;
84745;SDS011;74975;51.922;6.480;2024-02-21T04:20:35;11.98;;;5.35;;
84745;SDS011;74975;51.922;6.480;2024-02-21T04:23:08;15.70;;;5.97;;
84745;SDS011;74975;51.922;6.480;2024-02-21T04:25:40;12.95;;;5.10;;
84745;SDS011;74975;51.922;6.480;2024-02-21T04:28:12;10.00;;;5.35;;
84745;SDS011;74975;51.922;6.480;2024-02-21T04:30:45;9.35;;;4.95;;
84745;SDS011;74975;51.922;6.480;2024-02-21T04:33:17;12.20;;;3.85;;
84745;SDS011;74975;51.922;6.480;2024-02-21T04:35:55;11.93;;;5.43;;
84745;SDS011;74975;51.922;6.480;2024-02-21T04:38:31;11.88;;;5.47;;
84745;SDS011;74975;51.922;6.480;2024-02-21T04:41:07;12.75;;;5.43;;
84745;SDS011;74975;51.922;6.480;2024-02-21T04:43:39;14.05;;;5.80;;
84745;SDS011;74975;51.922;6.480;2024-02-21T04:46:16;5.63;;;4.45;;
84745;SDS011;74975;51.922;6.480;2024-02-21T04:48:48;8.43;;;5.25;;
84745;SDS011;74975;51.922;6.480;2024-02-21T04:51:23;15.50;;;6.40;;
84745;SDS011;74975;51.922;6.480;2024-02-21T04:53:58;12.70;;;5.38;;
84745;SDS011;74975;51.922;6.480;2024-02-21T04:56:29;8.63;;;5.35;;
84745;SDS011;74975;51.922;6.480;2024-02-21T04:59:04;11.13;;;5.40;;
84745;SDS011;74975;51.922;6.480;2024-02-21T05:01:38;15.85;;;6.15;;
84745;SDS011;74975;51.922;6.480;2024-02-21T05:04:10;12.00;;;5.10;;
84745;SDS011;74975;51.922;6.480;2024-02-21T05:06:44;13.25;;;6.18;;
84745;SDS011;74975;51.922;6.480;2024-02-21T05:09:20;16.70;;;7.45;;
84745;SDS011;74975;51.922;6.480;2024-02-21T05:11:57;13.13;;;5.22;;
84745;SDS011;74975;51.922;6.480;2024-02-21T05:17:09;9.30;;;5.95;;
84745;SDS011;74975;51.922;6.480;2024-02-21T05:19:47;12.18;;;4.55;;
84745;SDS011;74975;51.922;6.480;2024-02-21T05:22:19;14.93;;;6.45;;
84745;SDS011;74975;51.922;6.480;2024-02-21T05:24:50;8.40;;;4.85;;
84745;SDS011;74975;51.922;6.480;2024-02-21T05:27:15;17.20;;;7.32;;
84745;SDS011;74975;51.922;6.480;2024-02-21T05:29:47;12.02;;;6.43;;
84745;SDS011;74975;51.922;6.480;2024-02-21T05:32:19;9.15;;;5.10;;
84745;SDS011;74975;51.922;6.480;2024-02-21T05:34:53;11.88;;;6.60;;
84745;SDS011;74975;51.922;6.480;2024-02-21T05:37:25;9.88;;;4.63;;
84745;SDS011;74975;51.922;6.480;2024-02-21T05:39:57;11.57;;;6.03;;
84745;SDS011;74975;51.922;6.480;2024-02-21T05:42:29;13.77;;;6.90;;
84745;SDS011;74975;51.922;6.480;2024-02-21T05:45:05;10.93;;;6.03;;
84745;SDS011;74975;51.922;6.480;2024-02-21T05:47:36;10.90;;;5.97;;
84745;SDS011;74975;51.922;6.480;2024-02-21T05:50:15;9.50;;;5.72;;
84745;SDS011;74975;51.922;6.480;2024-02-21T05:52:54;12.60;;;5.45;;
84745;SDS011;74975;51.922;6.480;2024-02-21T05:55:29;11.70;;;6.32;;
84745;SDS011;74975;51.922;6.480;2024-02-21T05:58:01;13.02;;;7.25;;
84745;SDS011;74975;51.922;6.480;2024-02-21T06:00:37;13.60;;;6.72;;
84745;SDS011;74975;51.922;6.480;2024-02-21T06:03:15;10.65;;;5.32;;
84745;SDS011;74975;51.922;6.480;2024-02-21T06:05:44;13.98;;;8.10;;
84745;SDS011;74975;51.922;6.480;2024-02-21T06:08:15;15.90;;;5.93;;
84745;SDS011;74975;51.922;6.480;2024-02-21T06:10:44;9.15;;;5.75;;
84745;SDS011;74975;51.922;6.480;2024-02-21T06:13:25;10.35;;;5.65;;
84745;SDS011;74975;51.922;6.480;2024-02-21T06:16:00;20.70;;;8.90;;
84745;SDS011;74975;51.922;6.480;2024-02-21T06:18:35;19.55;;;8.13;;
84745;SDS011;74975;51.922;6.480;2024-02-21T06:21:09;13.23;;;6.93;;
84745;SDS011;74975;51.922;6.480;2024-02-21T06:23:44;15.25;;;7.10;;
84745;SDS011;74975;51.922;6.480;2024-02-21T06:26:13;13.32;;;7.25;;
84745;SDS011;74975;51.922;6.480;2024-02-21T06:28:48;14.10;;;6.97;;
84745;SDS011;74975;51.922;6.480;2024-02-21T06:31:16;20.65;;;7.57;;
84745;SDS011;74975;51.922;6.480;2024-02-21T06:33:49;13.18;;;6.53;;
84745;SDS011;74975;51.922;6.480;2024-02-21T06:36:19;11.40;;;7.03;;
84745;SDS011;74975;51.922;6.480;2024-02-21T06:38:48;14.98;;;6.65;;
84745;SDS011;74975;51.922;6.480;2024-02-21T06:41:17;9.88;;;4.82;;
84745;SDS011;74975;51.922;6.480;2024-02-21T06:43:44;12.40;;;6.82;;
84745;SDS011;74975;51.922;6.480;2024-02-21T06:46:11;17.73;;;6.72;;
84745;SDS011;74975;51.922;6.480;2024-02-21T06:49:02;10.25;;;5.30;;
84745;SDS011;74975;51.922;6.480;2024-02-21T06:51:30;12.02;;;6.30;;
84745;SDS011;74975;51.922;6.480;2024-02-21T06:54:01;8.98;;;5.43;;
84745;SDS011;74975;51.922;6.480;2024-02-21T06:56:31;9.18;;;4.97;;
84745;SDS011;74975;51.922;6.480;2024-02-21T06:58:57;10.43;;;4.30;;
84745;SDS011;74975;51.922;6.480;2024-02-21T07:01:28;8.52;;;4.38;;
84745;SDS011;74975;51.922;6.480;2024-02-21T07:03:57;17.05;;;7.43;;
84745;SDS011;74975;51.922;6.480;2024-02-21T07:06:30;12.90;;;6.28;;
84745;SDS011;74975;51.922;6.480;2024-02-21T07:08:56;16.52;;;7.90;;
84745;SDS011;74975;51.922;6.480;2024-02-21T07:11:27;10.65;;;5.18;;
84745;SDS011;74975;51.922;6.480;2024-02-21T07:13:53;6.47;;;3.47;;
84745;SDS011;74975;51.922;6.480;2024-02-21T07:16:18;9.20;;;5.00;;
84745;SDS011;74975;51.922;6.480;2024-02-21T07:18:44;13.35;;;5.03;;
84745;SDS011;74975;51.922;6.480;2024-02-21T07:21:09;8.02;;;5.22;;
84745;SDS011;74975;51.922;6.480;2024-02-21T07:23:35;16.45;;;6.13;;
84745;SDS011;74975;51.922;6.480;2024-02-21T07:26:00;7.78;;;4.45;;
84745;SDS011;74975;51.922;6.480;2024-02-21T07:28:26;11.57;;;5.65;;
84745;SDS011;74975;51.922;6.480;2024-02-21T07:31:01;6.95;;;4.68;;
84745;SDS011;74975;51.922;6.480;2024-02-21T07:33:27;7.10;;;5.53;;
84745;SDS011;74975;51.922;6.480;2024-02-21T07:35:55;8.40;;;5.00;;
84745;SDS011;74975;51.922;6.480;2024-02-21T07:38:23;14.38;;;5.72;;
84745;SDS011;74975;51.922;6.480;2024-02-21T07:40:49;5.25;;;2.95;;
84745;SDS011;74975;51.922;6.480;2024-02-21T07:43:22;14.73;;;5.50;;
84745;SDS011;74975;51.922;6.480;2024-02-21T07:45:51;9.38;;;5.05;;
84745;SDS011;74975;51.922;6.480;2024-02-21T07:48:18;12.15;;;5.38;;
84745;SDS011;74975;51.922;6.480;2024-02-21T07:50:44;12.07;;;4.97;;
84745;SDS011;74975;51.922;6.480;2024-02-21T07:53:14;12.60;;;7.05;;
84745;SDS011;74975;51.922;6.480;2024-02-21T07:55:47;10.02;;;4.70;;
84745;SDS011;74975;51.922;6.480;2024-02-21T07:58:17;10.73;;;5.68;;
84745;SDS011;74975;51.922;6.480;2024-02-21T08:00:53;14.75;;;6.53;;
84745;SDS011;74975;51.922;6.480;2024-02-21T08:03:23;10.50;;;5.70;;
84745;SDS011;74975;51.922;6.480;2024-02-21T08:05:54;9.05;;;6.00;;
84745;SDS011;74975;51.922;6.480;2024-02-21T08:08:26;10.93;;;4.93;;
84745;SDS011;74975;51.922;6.480;2024-02-21T08:10:58;6.93;;;4.40;;
84745;SDS011;74975;51.922;6.480;2024-02-21T08:13:26;10.05;;;5.22;;
84745;SDS011;74975;51.922;6.480;2024-02-21T08:15:53;12.60;;;6.85;;
84745;SDS011;74975;51.922;6.480;2024-02-21T08:18:19;15.30;;;7.03;;
84745;SDS011;74975;51.922;6.480;2024-02-21T08:20:45;10.00;;;5.93;;
84745;SDS011;74975;51.922;6.480;2024-02-21T08:23:15;16.48;;;6.32;;
84745;SDS011;74975;51.922;6.480;2024-02-21T08:25:48;8.10;;;6.05;;
84745;SDS011;74975;51.922;6.480;2024-02-21T08:28:13;12.57;;;5.00;;
84745;SDS011;74975;51.922;6.480;2024-02-21T08:30:39;10.57;;;4.93;;
84745;SDS011;74975;51.922;6.480;2024-02-21T08:33:09;10.27;;;5.10;;
84745;SDS011;74975;51.922;6.480;2024-02-21T08:35:39;10.80;;;6.32;;
84745;SDS011;74975;51.922;6.480;2024-02-21T08:38:08;9.82;;;5.03;;
84745;SDS011;74975;51.922;6.480;2024-02-21T08:40:44;11.20;;;7.30;;
84745;SDS011;74975;51.922;6.480;2024-02-21T08:43:16;14.82;;;6.38;;
84745;SDS011;74975;51.922;6.480;2024-02-21T08:45:42;19.50;;;6.72;;
84745;SDS011;74975;51.922;6.480;2024-02-21T08:48:08;13.63;;;6.00;;
84745;SDS011;74975;51.922;6.480;2024-02-21T08:50:33;11.80;;;6.03;;
84745;SDS011;74975;51.922;6.480;2024-02-21T08:52:59;7.10;;;4.32;;
84745;SDS011;74975;51.922;6.480;2024-02-21T08:55:28;24.30;;;4.10;;
84745;SDS011;74975;51.922;6.480;2024-02-21T08:58:00;14.57;;;6.25;;
84745;SDS011;74975;51.922;6.480;2024-02-21T09:00:29;14.20;;;4.78;;
84745;SDS011;74975;51.922;6.480;2024-02-21T09:03:00;9.05;;;5.43;;
84745;SDS011;74975;51.922;6.480;2024-02-21T09:07:51;8.05;;;4.45;;
84745;SDS011;74975;51.922;6.480;2024-02-21T09:10:16;9.20;;;4.70;;
84745;SDS011;74975;51.922;6.480;2024-02-21T09:12:51;9.95;;;5.13;;
84745;SDS011;74975;51.922;6.480;2024-02-21T09:15:22;12.13;;;5.22;;
84745;SDS011;74975;51.922;6.480;2024-02-21T09:17:49;7.80;;;4.72;;
84745;SDS011;74975;51.922;6.480;2024-02-21T09:20:18;10.23;;;4.65;;
84745;SDS011;74975;51.922;6.480;2024-02-21T09:22:50;7.50;;;3.70;;
84745;SDS011;74975;51.922;6.480;2024-02-21T09:25:18;8.27;;;5.07;;
84745;SDS011;74975;51.922;6.480;2024-02-21T09:27:47;7.72;;;4.93;;
84745;SDS011;74975;51.922;6.480;2024-02-21T09:30:16;8.68;;;4.32;;
84745;SDS011;74975;51.922;6.480;2024-02-21T09:32:43;5.28;;;3.80;;
84745;SDS011;74975;51.922;6.480;2024-02-21T09:35:09;7.38;;;4.25;;
84745;SDS011;74975;51.922;6.480;2024-02-21T09:37:41;6.90;;;4.22;;
84745;SDS011;74975;51.922;6.480;2024-02-21T09:40:15;11.00;;;5.15;;
84745;SDS011;74975;51.922;6.480;2024-02-21T09:42:46;8.65;;;4.90;;
84745;SDS011;74975;51.922;6.480;2024-02-21T09:45:21;9.20;;;3.30;;
84745;SDS011;74975;51.922;6.480;2024-02-21T09:50:44;8.07;;;4.40;;
84745;SDS011;74975;51.922;6.480;2024-02-21T09:53:12;8.98;;;4.28;;
84745;SDS011;74975;51.922;6.480;2024-02-21T09:55:43;5.18;;;3.13;;
84745;SDS011;74975;51.922;6.480;2024-02-21T09:58:15;7.22;;;3.80;;
84745;SDS011;74975;51.922;6.480;2024-02-21T10:00:47;4.70;;;2.63;;
84745;SDS011;74975;51.922;6.480;2024-02-21T10:03:19;9.07;;;4.72;;
84745;SDS011;74975;51.922;6.480;2024-02-21T10:05:54;8.50;;;4.45;;
84745;SDS011;74975;51.922;6.480;2024-02-21T10:08:31;6.30;;;4.00;;
84745;SDS011;74975;51.922;6.480;2024-02-21T10:11:09;7.95;;;4.38;;
84745;SDS011;74975;51.922;6.480;2024-02-21T10:13:41;5.53;;;3.65;;
84745;SDS011;74975;51.922;6.480;2024-02-21T10:16:17;6.28;;;3.92;;
84745;SDS011;74975;51.922;6.480;2024-02-21T10:18:56;10.25;;;3.92;;
84745;SDS011;74975;51.922;6.480;2024-02-21T10:21:34;5.70;;;3.85;;
84745;SDS011;74975;51.922;6.480;2024-02-21T10:23:59;9.50;;;4.47;;
84745;SDS011;74975;51.922;6.480;2024-02-21T10:26:25;6.65;;;4.10;;
84745;SDS011;74975;51.922;6.480;2024-02-21T10:28:53;7.35;;;3.35;;
84745;SDS011;74975;51.922;6.480;2024-02-21T10:31:26;6.38;;;3.00;;
84745;SDS011;74975;51.922;6.480;2024-02-21T10:36:28;5.13;;;2.72;;
84745;SDS011;74975;51.922;6.480;2024-02-21T10:39:00;3.53;;;2.42;;
84745;SDS011;74975;51.922;6.480;2024-02-21T10:41:33;4.45;;;2.80;;
84745;SDS011;74975;51.922;6.480;2024-02-21T10:44:01;5.20;;;3.28;;
84745;SDS011;74975;51.922;6.480;2024-02-21T10:46:33;5.72;;;3.50;;
84745;SDS011;74975;51.922;6.480;2024-02-21T10:49:22;6.25;;;4.30;;
84745;SDS011;74975;51.922;6.480;2024-02-21T10:52:03;6.50;;;4.05;;
84745;SDS011;74975;51.922;6.480;2024-02-21T10:54:45;8.05;;;3.90;;
84745;SDS011;74975;51.922;6.480;2024-02-21T10:57:26;6.63;;;3.38;;
84745;SDS011;74975;51.922;6.480;2024-02-21T10:59:56;6.43;;;3.25;;
84745;SDS011;74975;51.922;6.480;2024-02-21T11:02:29;6.75;;;4.30;;
84745;SDS011;74975;51.922;6.480;2024-02-21T11:04:57;9.88;;;5.00;;
84745;SDS011;74975;51.922;6.480;2024-02-21T11:07:31;10.75;;;5.60;;
84745;SDS011;74975;51.922;6.480;2024-02-21T11:09:57;9.48;;;5.13;;
84745;SDS011;74975;51.922;6.480;2024-02-21T11:12:24;6.50;;;4.03;;
84745;SDS011;74975;51.922;6.480;2024-02-21T11:14:52;9.30;;;5.70;;
84745;SDS011;74975;51.922;6.480;2024-02-21T11:17:39;6.60;;;4.45;;
84745;SDS011;74975;51.922;6.480;2024-02-21T11:20:17;13.38;;;5.90;;
84745;SDS011;74975;51.922;6.480;2024-02-21T11:22:43;6.07;;;4.43;;
84745;SDS011;74975;51.922;6.480;2024-02-21T11:25:21;6.22;;;3.75;;
84745;SDS011;74975;51.922;6.480;2024-02-21T11:27:58;8.15;;;5.28;;
84745;SDS011;74975;51.922;6.480;2024-02-21T11:30:31;10.75;;;6.25;;
84745;SDS011;74975;51.922;6.480;2024-02-21T11:33:07;10.98;;;4.20;;
84745;SDS011;74975;51.922;6.480;2024-02-21T11:35:33;11.25;;;4.72;;
84745;SDS011;74975;51.922;6.480;2024-02-21T11:38:12;7.65;;;3.50;;
84745;SDS011;74975;51.922;6.480;2024-02-21T11:40:44;4.47;;;3.28;;
84745;SDS011;74975;51.922;6.480;2024-02-21T11:43:11;8.98;;;5.00;;
84745;SDS011;74975;51.922;6.480;2024-02-21T11:45:40;15.32;;;5.07;;
84745;SDS011;74975;51.922;6.480;2024-02-21T11:48:08;9.00;;;4.55;;
84745;SDS011;74975;51.922;6.480;2024-02-21T11:50:34;7.85;;;5.85;;
84745;SDS011;74975;51.922;6.480;2024-02-21T11:53:05;11.63;;;4.28;;
84745;SDS011;74975;51.922;6.480;2024-02-21T11:55:32;8.18;;;4.32;;
84745;SDS011;74975;51.922;6.480;2024-02-21T11:58:01;8.27;;;3.85;;
84745;SDS011;74975;51.922;6.480;2024-02-21T12:00:26;8.25;;;4.25;;
84745;SDS011;74975;51.922;6.480;2024-02-21T12:02:53;3.72;;;2.90;;
84745;SDS011;74975;51.922;6.480;2024-02-21T12:05:31;5.97;;;3.10;;
84745;SDS011;74975;51.922;6.480;2024-02-21T12:08:00;8.35;;;4.15;;
84745;SDS011;74975;51.922;6.480;2024-02-21T12:10:25;6.63;;;3.00;;
84745;SDS011;74975;51.922;6.480;2024-02-21T12:13:05;6.53;;;3.88;;
84745;SDS011;74975;51.922;6.480;2024-02-21T12:15:40;9.35;;;3.35;;
84745;SDS011;74975;51.922;6.480;2024-02-21T12:18:05;8.55;;;3.92;;
84745;SDS011;74975;51.922;6.480;2024-02-21T12:20:35;5.38;;;3.67;;
84745;SDS011;74975;51.922;6.480;2024-02-21T12:23:01;9.18;;;4.53;;
84745;SDS011;74975;51.922;6.480;2024-02-21T12:25:27;5.40;;;3.17;;
84745;SDS011;74975;51.922;6.480;2024-02-21T12:27:53;7.45;;;4.13;;
84745;SDS011;74975;51.922;6.480;2024-02-21T12:30:19;7.10;;;3.10;;
84745;SDS011;74975;51.922;6.480;2024-02-21T12:32:46;7.70;;;3.58;;
84745;SDS011;74975;51.922;6.480;2024-02-21T12:35:13;7.50;;;3.35;;
84745;SDS011;74975;51.922;6.480;2024-02-21T12:37:38;16.08;;;5.32;;
84745;SDS011;74975;51.922;6.480;2024-02-21T12:40:09;6.97;;;3.17;;
84745;SDS011;74975;51.922;6.480;2024-02-21T12:42:40;10.52;;;4.07;;
84745;SDS011;74975;51.922;6.480;2024-02-21T12:45:06;4.97;;;3.85;;
84745;SDS011;74975;51.922;6.480;2024-02-21T12:50:16;9.15;;;5.35;;
84745;SDS011;74975;51.922;6.480;2024-02-21T12:52:41;7.80;;;3.33;;
84745;SDS011;74975;51.922;6.480;2024-02-21T12:55:07;5.70;;;3.35;;
84745;SDS011;74975;51.922;6.480;2024-02-21T12:57:35;4.80;;;3.58;;
84745;SDS011;74975;51.922;6.480;2024-02-21T13:00:00;10.93;;;4.80;;
84745;SDS011;74975;51.922;6.480;2024-02-21T13:02:26;7.28;;;3.67;;
84745;SDS011;74975;51.922;6.480;2024-02-21T13:04:52;7.07;;;3.30;;
84745;SDS011;74975;51.922;6.480;2024-02-21T13:07:17;8.38;;;3.95;;
84745;SDS011;74975;51.922;6.480;2024-02-21T13:09:46;9.00;;;5.25;;
84745;SDS011;74975;51.922;6.480;2024-02-21T13:12:15;7.10;;;4.00;;
84745;SDS011;74975;51.922;6.480;2024-02-21T13:14:41;11.88;;;3.78;;
84745;SDS011;74975;51.922;6.480;2024-02-21T13:17:08;8.13;;;3.35;;
84745;SDS011;74975;51.922;6.480;2024-02-21T13:19:34;5.57;;;3.28;;
84745;SDS011;74975;51.922;6.480;2024-02-21T13:22:02;6.00;;;3.83;;
84745;SDS011;74975;51.922;6.480;2024-02-21T13:24:31;7.80;;;3.53;;
84745;SDS011;74975;51.922;6.480;2024-02-21T13:26:58;7.22;;;3.42;;
84745;SDS011;74975;51.922;6.480;2024-02-21T13:29:23;5.65;;;4.50;;
84745;SDS011;74975;51.922;6.480;2024-02-21T13:31:52;8.23;;;3.67;;
84745;SDS011;74975;51.922;6.480;2024-02-21T13:34:25;5.88;;;3.35;;
84745;SDS011;74975;51.922;6.480;2024-02-21T13:36:55;7.65;;;3.92;;
84745;SDS011;74975;51.922;6.480;2024-02-21T13:39:24;8.85;;;3.72;;
84745;SDS011;74975;51.922;6.480;2024-02-21T13:41:54;9.88;;;3.90;;
84745;SDS011;74975;51.922;6.480;2024-02-21T13:44:19;6.57;;;3.30;;
84745;SDS011;74975;51.922;6.480;2024-02-21T13:46:48;6.38;;;3.75;;
84745;SDS011;74975;51.922;6.480;2024-02-21T13:49:16;7.90;;;3.67;;
84745;SDS011;74975;51.922;6.480;2024-02-21T13:51:42;10.48;;;6.28;;
84745;SDS011;74975;51.922;6.480;2024-02-21T13:54:09;8.88;;;3.67;;
84745;SDS011;74975;51.922;6.480;2024-02-21T13:56:40;9.93;;;4.60;;
84745;SDS011;74975;51.922;6.480;2024-02-21T13:59:05;6.68;;;4.28;;
84745;SDS011;74975;51.922;6.480;2024-02-21T14:01:33;6.57;;;3.70;;
84745;SDS011;74975;51.922;6.480;2024-02-21T14:04:02;6.72;;;3.45;;
84745;SDS011;74975;51.922;6.480;2024-02-21T14:06:33;7.63;;;4.18;;
84745;SDS011;74975;51.922;6.480;2024-02-21T14:09:13;6.05;;;3.30;;
84745;SDS011;74975;51.922;6.480;2024-02-21T14:11:43;7.43;;;3.67;;
84745;SDS011;74975;51.922;6.480;2024-02-21T14:14:10;6.68;;;3.70;;
84745;SDS011;74975;51.922;6.480;2024-02-21T14:16:40;5.72;;;2.92;;
84745;SDS011;74975;51.922;6.480;2024-02-21T14:19:11;6.28;;;3.55;;
84745;SDS011;74975;51.922;6.480;2024-02-21T14:21:40;7.70;;;3.97;;
84745;SDS011;74975;51.922;6.480;2024-02-21T14:24:15;6.45;;;3.70;;
84745;SDS011;74975;51.922;6.480;2024-02-21T14:26:40;9.05;;;3.10;;
84745;SDS011;74975;51.922;6.480;2024-02-21T14:29:07;4.03;;;2.55;;
84745;SDS011;74975;51.922;6.480;2024-02-21T14:31:37;6.90;;;2.70;;
84745;SDS011;74975;51.922;6.480;2024-02-21T14:34:03;6.30;;;4.00;;
84745;SDS011;74975;51.922;6.480;2024-02-21T14:36:32;9.40;;;3.50;;
84745;SDS011;74975;51.922;6.480;2024-02-21T14:38:58;9.40;;;4.15;;
84745;SDS011;74975;51.922;6.480;2024-02-21T14:41:30;3.58;;;2.50;;
84745;SDS011;74975;51.922;6.480;2024-02-21T14:44:00;5.18;;;3.03;;
84745;SDS011;74975;51.922;6.480;2024-02-21T14:46:33;4.82;;;3.17;;
84745;SDS011;74975;51.922;6.480;2024-02-21T14:49:05;5.85;;;2.80;;
84745;SDS011;74975;51.922;6.480;2024-02-21T14:51:38;7.18;;;3.65;;
84745;SDS011;74975;51.922;6.480;2024-02-21T14:54:10;6.07;;;3.17;;
84745;SDS011;74975;51.922;6.480;2024-02-21T14:56:36;12.65;;;3.78;;
84745;SDS011;74975;51.922;6.480;2024-02-21T14:59:05;6.75;;;2.97;;
84745;SDS011;74975;51.922;6.480;2024-02-21T15:01:41;5.45;;;3.47;;
84745;SDS011;74975;51.922;6.480;2024-02-21T15:04:10;5.82;;;3.05;;
84745;SDS011;74975;51.922;6.480;2024-02-21T15:06:42;5.03;;;3.60;;
84745;SDS011;74975;51.922;6.480;2024-02-21T15:09:16;6.35;;;3.03;;
84745;SDS011;74975;51.922;6.480;2024-02-21T15:11:45;5.05;;;3.08;;
84745;SDS011;74975;51.922;6.480;2024-02-21T15:14:16;5.68;;;2.70;;
84745;SDS011;74975;51.922;6.480;2024-02-21T15:16:52;6.57;;;3.60;;
84745;SDS011;74975;51.922;6.480;2024-02-21T15:19:28;9.00;;;3.35;;